Flight Track Log - Related Links

Times and Time Zones

All times are in EDT time to prevent confusion due to time zone crossing. See the DAL859 flight status page for this flight to view local times or setup timezone preferences in your user account.

Time Position Orientation Groundspeed Altitude Reporting Facility
EDT Latitude Longitude Course Direction KTS MPH feet Rate Location/Type
Thu 02:47:24 PM 42.3667 -70.9833 90° East 172 198 500  Level KA90
Thu 02:48:24 PM 42.3667 -70.9167 90° East 224 258 2,400 2,103 Climbing KA90
Thu 02:49:01 PM 42.3833 -70.8556 70° East 241 277 3,900 2,422 Climbing Boston Center
Thu 02:52:07 PM 42.5653 -70.8919 308° West 316 364 11,400 2,419 Climbing Boston Center
Thu 02:53:09 PM 42.6322 -71.0106 308° West 365 420 13,900 2,304 Climbing Boston Center
Thu 02:54:12 PM 42.6975 -71.1250 308° West 379 436 16,200 2,293 Climbing Boston Center
Thu 02:55:12 PM 42.7633 -71.2439 307° West 389 448 18,600 1,935 Climbing Boston Center
Thu 02:56:16 PM 42.7978 -71.3714 290° West 395 455 20,200 1,824 Climbing Boston Center
Thu 02:57:17 PM 42.8172 -71.5206 280° West 400 460 22,400 1,820 Climbing Boston Center
Thu 02:58:18 PM 42.8408 -71.7133 280° West 421 484 23,900 1,419 Climbing Boston Center
Thu 03:00:23 PM 42.8825 -72.0403 280° West 437 503 26,800 1,320 Climbing Boston Center
Thu 03:02:28 PM 42.9256 -72.3731 278° West 447 514 29,400 1,492 Climbing Boston Center
Thu 03:03:28 PM 42.9450 -72.5408 279° West 448 516 31,400 1,565 Climbing Boston Center
Thu 03:05:32 PM 42.9858 -72.8939 270° West 437 503 34,200 1,293 Climbing Boston Center
Thu 03:07:34 PM 43.0247 -73.2133 279° West 432 497 36,700 1,226 Climbing Boston Center
Thu 03:08:38 PM 43.0431 -73.3825 278° West 416 479 38,000 629 Climbing Boston Center
Thu 03:09:38 PM 43.0597 -73.5356 279° West 412 474 38,000  Level Boston Center
Thu 03:10:42 PM 43.0767 -73.6903 279° West 410 472 38,000  Level Boston Center
Thu 03:11:43 PM 43.0947 -73.8453 279° West 411 473 38,000  Level Boston Center
Thu 03:13:47 PM 43.1314 -74.1881 278° West 414 476 38,000  Level Boston Center
Thu 03:14:48 PM 43.1892 -74.3294 299° West 430 495 38,000  Level Boston Center
Thu 03:15:48 PM 43.2694 -74.4592 310° West 445 512 38,000  Level Boston Center
Thu 03:16:52 PM 43.3381 -74.5964 305° West 442 509 38,000  Level Boston Center
Thu 03:19:56 PM 43.5319 -75.0506 286° West 438 504 38,000  Level Cleveland Center
Thu 03:20:58 PM 43.5856 -75.1944 297° West 436 502 38,000  Level Cleveland Center
Thu 03:22:01 PM 43.6197 -75.3467 287° West 426 490 38,000  Level Boston Center
Thu 03:24:05 PM 43.6856 -75.6783 285° West 410 472 38,000  Level Boston Center
Thu 03:25:06 PM 43.7156 -75.8264 286° West 407 468 38,000  Level Boston Center
Thu 03:26:07 PM 43.7439 -75.9728 285° West 400 460 38,000  Level Boston Center
Thu 03:27:08 PM 43.7725 -76.1186 285° West 396 456 38,000  Level Boston Center
Thu 03:29:12 PM 43.8278 -76.4119 285° West 394 453 38,000  Level Cleveland Center
Thu 03:30:15 PM 43.8556 -76.5617 284° West 398 458 38,000  Level Boston Center
Thu 03:32:17 PM 43.9186 -76.8928 285° West 403 464 38,000  Level Cleveland Center
Thu 03:33:15 PM 43.9333 -77.0167 279° West 410 472 38,000  Level Toronto Center
Thu 03:36:15 PM 44.0167 -77.4833 284° West 410 472 38,000  Level Toronto Center
Thu 03:37:15 PM 44.0500 -77.6333 287° West 410 472 38,000  Level Toronto Center
Thu 03:38:15 PM 44.0667 -77.8000 278° West 410 472 38,000  Level Toronto Center
Thu 03:39:15 PM 44.1000 -77.9333 289° West 410 472 38,000  Level Toronto Center
Thu 03:41:16 PM 44.1500 -78.2333 283° West 400 460 38,000  Level Toronto Center
Thu 03:42:16 PM 44.1667 -78.4000 278° West 400 460 38,000  Level Toronto Center
Thu 03:43:16 PM 44.2167 -78.5333 298° West 410 472 38,000  Level Toronto Center
Thu 03:44:16 PM 44.2333 -78.7000 278° West 410 472 38,000  Level Toronto Center
Thu 03:45:16 PM 44.2667 -78.8667 286° West 410 472 38,000  Level Toronto Center
Thu 03:46:16 PM 44.2833 -79.0000 280° West 410 472 38,000  Level Toronto Center
Thu 03:47:16 PM 44.3000 -79.1667 278° West 410 472 38,000  Level Toronto Center
Thu 03:48:16 PM 44.3167 -79.3333 278° West 410 472 38,000  Level Toronto Center
Thu 03:49:16 PM 44.3333 -79.5000 278° West 410 472 38,000  Level Toronto Center
Thu 03:50:16 PM 44.3333 -79.6333 270° West 410 472 38,000  Level Toronto Center
Thu 03:51:16 PM 44.3500 -79.8167 277° West 420 483 38,000  Level Toronto Center
Thu 03:52:16 PM 44.3667 -79.9667 279° West 420 483 38,000  Level Toronto Center
Thu 03:53:16 PM 44.3667 -80.1167 270° West 420 483 38,000  Level Toronto Center
Thu 03:54:16 PM 44.3833 -80.2833 278° West 420 483 38,000  Level Toronto Center
Thu 03:55:16 PM 44.3833 -80.4500 270° West 420 483 38,000  Level Toronto Center
Thu 03:57:16 PM 44.4167 -80.7833 278° West 420 483 38,000  Level Toronto Center
Thu 03:58:16 PM 44.4000 -80.9667 263° West 420 483 38,000  Level Toronto Center
Thu 03:59:16 PM 44.4167 -81.1000 280° West 430 495 38,000  Level Toronto Center
Thu 04:00:16 PM 44.4167 -81.2667 270° West 430 495 38,000  Level Toronto Center
Thu 04:01:16 PM 44.4333 -81.4500 277° West 430 495 38,000  Level Toronto Center
Thu 04:02:16 PM 44.4500 -81.6167 278° West 440 506 38,000  Level Toronto Center
Thu 04:03:16 PM 44.4500 -81.7833 270° West 430 495 38,000  Level Toronto Center
Thu 04:04:16 PM 44.4500 -81.9500 270° West 440 506 38,000  Level Toronto Center
Thu 04:05:16 PM 44.4500 -82.1333 270° West 430 495 38,000  Level Toronto Center
Thu 04:06:16 PM 44.4667 -82.3000 278° West 440 506 38,000  Level Toronto Center
Thu 04:07:15 PM 44.4833 -82.4667 278° West 430 495 38,000  Level Toronto Center
Thu 04:08:12 PM 44.4928 -82.6153 275° West 433 498 38,000  Level Minneapolis Center
Thu 04:09:14 PM 44.4986 -82.7817 273° West 432 497 38,000  Level Minneapolis Center
Thu 04:10:16 PM 44.5053 -82.9478 273° West 431 496 38,000  Level Minneapolis Center
Thu 04:12:20 PM 44.5172 -83.3128 273° West 430 495 38,000  Level Minneapolis Center
Thu 04:13:22 PM 44.5211 -83.4786 272° West 430 495 38,000  Level Minneapolis Center
Thu 04:14:25 PM 44.5258 -83.6453 272° West 430 495 38,000  Level Minneapolis Center
Thu 04:15:27 PM 44.5300 -83.8133 272° West 430 495 38,000  Level Minneapolis Center
Thu 04:16:29 PM 44.5333 -83.9819 272° West 431 496 38,000  Level Minneapolis Center
Thu 04:18:15 PM 44.5167 -84.3167 266° West 430 495 38,000  Level Toronto Center
Thu 04:19:35 PM 44.5453 -84.5214 281° West 432 497 38,000  Level Minneapolis Center
Thu 04:20:37 PM 44.5494 -84.6897 272° West 432 497 38,000  Level Minneapolis Center
Thu 04:21:39 PM 44.5506 -84.8561 271° West 432 497 38,000  Level Minneapolis Center
Thu 04:22:42 PM 44.5531 -85.0208 271° West 426 490 38,000  Level Minneapolis Center
Thu 04:23:44 PM 44.5558 -85.1872 271° West 427 491 38,000  Level Minneapolis Center
Thu 04:24:46 PM 44.5575 -85.3861 271° West 427 491 38,000  Level Minneapolis Center
Thu 04:25:48 PM 44.5597 -85.5533 271° West 427 491 38,000  Level Minneapolis Center
Thu 04:27:52 PM 44.5631 -85.8914 271° West 428 493 38,000  Level Minneapolis Center
Thu 04:29:56 PM 44.5850 -86.2331 275° West 432 497 38,000  Level Minneapolis Center
Thu 04:32:01 PM 44.6089 -86.6097 275° West 436 502 38,000  Level Minneapolis Center
Thu 04:33:03 PM 44.6183 -86.7806 275° West 437 503 38,000  Level Minneapolis Center
Thu 04:34:05 PM 44.6289 -86.9514 275° West 438 504 38,000  Level Minneapolis Center
Thu 04:35:07 PM 44.6389 -87.1219 275° West 439 505 38,000  Level Minneapolis Center
Thu 04:36:09 PM 44.6478 -87.2939 274° West 439 505 38,000  Level Minneapolis Center
Thu 04:37:11 PM 44.6567 -87.4642 274° West 439 505 38,000  Level Minneapolis Center
Thu 04:38:13 PM 44.6678 -87.6689 274° West 439 505 38,000  Level Minneapolis Center
Thu 04:39:15 PM 44.6764 -87.8383 274° West 439 505 38,000  Level Minneapolis Center
Thu 04:40:17 PM 44.6847 -88.0125 274° West 436 502 38,000 -513 Level Minneapolis Center
Thu 04:42:22 PM 44.6997 -88.3386 274° West 421 484 36,400 -834 Descending Minneapolis Center
Thu 04:43:24 PM 44.7064 -88.4969 273° West 412 474 35,400 -968 Descending Minneapolis Center
Thu 04:44:26 PM 44.7133 -88.6553 274° West 411 473 34,400 -677 Descending Minneapolis Center
Thu 04:45:28 PM 44.7214 -88.8458 273° West 411 473 34,000 -581 Descending Minneapolis Center
Thu 04:48:34 PM 44.7403 -89.3189 272° West 406 467 32,000 -484 Descending Minneapolis Center
Thu 04:49:36 PM 44.7450 -89.4764 272° West 405 466 32,000  Level Minneapolis Center
Thu 04:50:38 PM 44.7644 -89.6617 278° West 405 466 32,000  Level Minneapolis Center
Thu 04:53:45 PM 44.8211 -90.1267 283° West 403 464 32,000  Level Minneapolis Center
Thu 04:54:47 PM 44.8394 -90.2942 279° West 399 459 32,000  Level Minneapolis Center
Thu 04:55:49 PM 44.8572 -90.4475 279° West 397 457 32,000  Level Minneapolis Center
Thu 04:56:51 PM 44.8753 -90.6072 279° West 407 468 32,000  Level Minneapolis Center
Thu 04:57:53 PM 44.8925 -90.7692 279° West 415 478 32,000  Level Minneapolis Center
Thu 04:58:55 PM 44.9122 -90.9528 279° West 415 478 32,000 -1,952 Level Minneapolis Center
Thu 05:02:02 PM 44.9617 -91.4292 264° West 411 473 23,900 -2,410 Descending Minneapolis Center
Thu 05:03:04 PM 44.9775 -91.5803 278° West 399 459 22,000 -2,226 Descending Minneapolis Center
Thu 05:04:06 PM 44.9969 -91.7653 279° West 398 458 19,300 -2,688 Descending Minneapolis Center
Thu 05:05:09 PM 45.0131 -91.9106 279° West 381 438 16,400 -2,503 Descending Minneapolis Center
Thu 05:07:13 PM 45.0403 -92.1947 278° West 367 422 11,500 -1,742 Descending Minneapolis Center
Thu 05:08:15 PM 45.0433 -92.3358 272° West 365 420 11,000 -726 Descending Minneapolis Center
Thu 05:09:17 PM 44.9903 -92.4711 241° Southwest 323 372 10,000 -1,519 Descending Minneapolis Center
Thu 05:10:53 PM 44.9167 -92.6167 235° Southwest 281 323 7,000 -1,222 Descending Minneapolis TRACON
Thu 05:11:59 PM 44.8667 -92.7167 235° Southwest 277 319 6,700 -750 Descending Minneapolis TRACON
Thu 05:12:53 PM 44.8333 -92.8000 241° Southwest 274 315 5,500 -1,250 Descending Minneapolis TRACON
Thu 05:13:59 PM 44.8000 -92.9000 245° Southwest 270 311 4,200 -789 Descending Minneapolis TRACON
Thu 05:14:47 PM 44.8000 -92.9667 270° West 239 275 4,000 -462 Descending Minneapolis TRACON
Thu 05:15:30 PM 44.8097 -93.0283 283° West 223 257 3,500 -857 Descending Minneapolis Center
Thu 05:16:32 PM 44.8364 -93.0903 301° West 189 217 2,500 -968 Descending Minneapolis Center
Thu 05:20:00 PM 44.8667 -93.2167 245° Southwest  Level FlightAware Approximate
Thu 05:27:00 PM 44.8820 -93.2218 245° Southwest  Level Estimated

Login

Don't have an account? Register now (free) for customized features, flight alerts, and more!